Time;durP1;ratioP1;P1;durP2;ratioP2;P2;SDS_P1;SDS_P2;PMS_P1;PMS_P2;Temp;Humidity;BMP_temperature;BMP_pressure;BME280_temperature;BME280_humidity;BME280_pressure;Samples;Min_cycle;Max_cycle;Signal;HPM_P1;HPM_P2
2022/03/13 00:01:06;;;;;;;1.38;1.35;;;;;;;;;;4939419;29;20196;-52
2022/03/13 00:03:32;;;;;;;7.20;6.55;;;;;;;;;;4944838;29;20035;-55
2022/03/13 00:05:58;;;;;;;0.35;0.35;;;;;;;;;;4939116;29;20028;-50
2022/03/13 00:08:23;;;;;;;1.55;1.55;;;;;;;;;;4935971;29;20389;-51
2022/03/13 00:11:08;;;;;;;0.00;0.00;;;;;;;;;;4936064;29;20111;-51
2022/03/13 00:13:35;;;;;;;0.45;0.45;;;;;;;;;;4935857;29;20038;-51
2022/03/13 00:16:03;;;;;;;0.00;0.00;;;;;;;;;;4939239;29;20020;-50
2022/03/13 00:18:29;;;;;;;0.00;0.00;;;;;;;;;;4939699;29;20023;-51
2022/03/13 00:20:55;;;;;;;0.00;0.00;;;;;;;;;;4943247;29;20756;-53
2022/03/13 00:23:22;;;;;;;1.38;1.38;;;;;;;;;;4936229;29;20241;-53
2022/03/13 00:25:47;;;;;;;1.63;1.55;;;;;;;;;;4944225;29;20027;-54
2022/03/13 00:28:12;;;;;;;0.45;0.45;;;;;;;;;;4940449;29;20571;-48
2022/03/13 00:30:39;;;;;;;0.30;0.30;;;;;;;;;;4935973;29;20465;-54
2022/03/13 00:33:04;;;;;;;0.00;0.00;;;;;;;;;;4947075;29;20031;-50
2022/03/13 00:35:29;;;;;;;1.15;0.95;;;;;;;;;;4938193;29;20085;-52
2022/03/13 00:37:55;;;;;;;0.00;0.00;;;;;;;;;;4937921;29;20030;-45
2022/03/13 00:40:20;;;;;;;0.00;0.00;;;;;;;;;;4940551;29;20023;-52
2022/03/13 00:42:46;;;;;;;0.00;0.00;;;;;;;;;;4941763;29;20496;-54
2022/03/13 00:45:11;;;;;;;0.00;0.00;;;;;;;;;;4941757;29;20034;-52
2022/03/13 00:47:37;;;;;;;0.00;0.00;;;;;;;;;;4942187;29;20027;-53
2022/03/13 00:50:03;;;;;;;0.00;0.00;;;;;;;;;;4940051;29;20035;-55
2022/03/13 00:52:28;;;;;;;0.85;0.85;;;;;;;;;;4937986;29;20161;-52
2022/03/13 00:54:53;;;;;;;0.20;0.20;;;;;;;;;;4942803;29;20094;-58
2022/03/13 00:57:19;;;;;;;1.95;1.80;;;;;;;;;;4940209;29;20103;-55
2022/03/13 00:59:44;;;;;;;0.00;0.00;;;;;;;;;;4925813;29;20146;-54
2022/03/13 01:02:10;;;;;;;0.00;0.00;;;;;;;;;;4943189;29;20473;-51
2022/03/13 01:04:36;;;;;;;0.00;0.00;;;;;;;;;;4939915;29;20027;-51
2022/03/13 01:07:01;;;;;;;0.00;0.00;;;;;;;;;;4941041;28;20024;-53
2022/03/13 01:09:27;;;;;;;0.30;0.30;;;;;;;;;;4942802;29;20465;-49
2022/03/13 01:11:52;;;;;;;0.32;0.32;;;;;;;;;;4945936;29;20114;-53
2022/03/13 01:14:19;;;;;;;4.05;2.25;;;;;;;;;;4942704;29;20102;-52
2022/03/13 01:16:45;;;;;;;4.00;3.90;;;;;;;;;;4949563;29;20023;-52
2022/03/13 01:19:10;;;;;;;0.00;0.00;;;;;;;;;;4942373;29;20023;-49
2022/03/13 01:21:39;;;;;;;1.35;1.35;;;;;;;;;;4948951;29;20024;-54
2022/03/13 01:24:10;;;;;;;0.00;0.00;;;;;;;;;;4940749;29;20453;-55
2022/03/13 01:26:39;;;;;;;0.00;0.00;;;;;;;;;;4920047;29;20333;-54
2022/03/13 01:29:08;;;;;;;0.00;0.00;;;;;;;;;;4942782;29;20023;-55
2022/03/13 01:31:35;;;;;;;0.00;0.00;;;;;;;;;;4944540;29;20042;-56
2022/03/13 01:34:01;;;;;;;0.00;0.00;;;;;;;;;;4940921;29;20035;-52
2022/03/13 01:36:26;;;;;;;0.25;0.25;;;;;;;;;;4939670;29;20019;-52
2022/03/13 01:38:53;;;;;;;0.00;0.00;;;;;;;;;;4938344;29;20202;-54
2022/03/13 01:41:18;;;;;;;0.15;0.15;;;;;;;;;;4939488;29;20389;-55
2022/03/13 01:43:44;;;;;;;6.63;5.15;;;;;;;;;;4943879;29;20027;-49
2022/03/13 01:46:09;;;;;;;0.00;0.00;;;;;;;;;;4944663;29;20528;-48
2022/03/13 01:48:38;;;;;;;0.00;0.00;;;;;;;;;;4946402;29;20079;-51
2022/03/13 01:51:05;;;;;;;0.15;0.15;;;;;;;;;;4941170;29;20052;-53
2022/03/13 01:53:31;;;;;;;0.00;0.00;;;;;;;;;;4941772;29;20059;-51
2022/03/13 01:55:56;;;;;;;1.65;0.57;;;;;;;;;;4942553;29;20035;-51
2022/03/13 01:58:21;;;;;;;0.00;0.00;;;;;;;;;;4942968;29;20023;-52
2022/03/13 02:00:47;;;;;;;0.00;0.00;;;;;;;;;;4937948;29;20030;-50
2022/03/13 02:03:12;;;;;;;0.00;0.00;;;;;;;;;;4941579;29;20027;-52
2022/03/13 02:05:38;;;;;;;0.75;0.73;;;;;;;;;;4945006;29;20081;-53
2022/03/13 02:08:05;;;;;;;0.00;0.00;;;;;;;;;;4941683;29;20094;-53
2022/03/13 02:10:31;;;;;;;0.00;0.00;;;;;;;;;;4939023;29;20028;-54
2022/03/13 02:12:56;;;;;;;0.00;0.00;;;;;;;;;;4944951;29;20086;-50
2022/03/13 02:15:28;;;;;;;0.00;0.00;;;;;;;;;;4926561;29;20031;-52
2022/03/13 02:17:53;;;;;;;16.80;15.35;;;;;;;;;;4936239;29;20042;-53
2022/03/13 02:20:25;;;;;;;0.00;0.00;;;;;;;;;;4941192;29;20047;-49
2022/03/13 02:22:51;;;;;;;1.08;1.08;;;;;;;;;;4941148;29;20048;-52
2022/03/13 02:25:21;;;;;;;0.00;0.00;;;;;;;;;;4942772;29;20392;-51
2022/03/13 02:27:47;;;;;;;0.00;0.00;;;;;;;;;;4941981;29;20026;-51
2022/03/13 02:30:13;;;;;;;0.20;0.20;;;;;;;;;;4942753;29;20031;-53
2022/03/13 02:32:38;;;;;;;0.00;0.00;;;;;;;;;;4943665;29;20038;-51
2022/03/13 02:35:03;;;;;;;0.55;0.55;;;;;;;;;;4941351;29;20512;-50
2022/03/13 02:37:35;;;;;;;0.00;0.00;;;;;;;;;;4943586;29;20562;-52
2022/03/13 02:40:00;;;;;;;0.00;0.00;;;;;;;;;;4940769;29;20027;-51
2022/03/13 02:42:25;;;;;;;0.00;0.00;;;;;;;;;;4942621;29;20055;-49
2022/03/13 02:44:50;;;;;;;0.00;0.00;;;;;;;;;;4943809;29;20370;-51
2022/03/13 02:47:18;;;;;;;0.10;0.10;;;;;;;;;;4941085;29;20503;-54
2022/03/13 02:49:44;;;;;;;1.10;1.10;;;;;;;;;;4938195;29;20036;-54
2022/03/13 02:52:09;;;;;;;0.00;0.00;;;;;;;;;;4948628;29;20524;-46
2022/03/13 02:54:34;;;;;;;0.13;0.13;;;;;;;;;;4939092;29;20099;-53
2022/03/13 02:56:59;;;;;;;0.00;0.00;;;;;;;;;;4938103;29;20118;-54
2022/03/13 02:59:25;;;;;;;0.82;0.82;;;;;;;;;;4940689;29;20380;-53
2022/03/13 03:01:50;;;;;;;0.00;0.00;;;;;;;;;;4940914;29;20369;-51
2022/03/13 03:04:16;;;;;;;0.00;0.00;;;;;;;;;;4941438;29;20027;-52
2022/03/13 03:06:49;;;;;;;0.00;0.00;;;;;;;;;;4945446;29;20023;-50
2022/03/13 03:09:16;;;;;;;0.00;0.00;;;;;;;;;;4945090;29;20760;-49
2022/03/13 03:11:41;;;;;;;0.00;0.00;;;;;;;;;;4939540;29;20027;-54
2022/03/13 03:14:06;;;;;;;0.00;0.00;;;;;;;;;;4946713;29;20077;-53
2022/03/13 03:16:32;;;;;;;0.13;0.13;;;;;;;;;;4939984;29;20049;-54
2022/03/13 03:18:57;;;;;;;0.00;0.00;;;;;;;;;;4940317;29;20123;-52
2022/03/13 03:21:22;;;;;;;0.00;0.00;;;;;;;;;;4945085;29;20035;-54
2022/03/13 03:23:48;;;;;;;3.15;3.00;;;;;;;;;;4942129;29;20131;-50
2022/03/13 03:26:13;;;;;;;0.00;0.00;;;;;;;;;;4937916;29;20032;-51
2022/03/13 03:28:38;;;;;;;0.00;0.00;;;;;;;;;;4939421;28;20119;-51
2022/03/13 03:31:04;;;;;;;0.00;0.00;;;;;;;;;;4920938;29;20023;-49
2022/03/13 03:33:29;;;;;;;0.22;0.22;;;;;;;;;;4941867;29;20493;-50
2022/03/13 03:35:54;;;;;;;1.08;1.08;;;;;;;;;;4939938;29;20015;-54
2022/03/13 03:38:19;;;;;;;0.00;0.00;;;;;;;;;;4941586;29;20023;-55
2022/03/13 03:40:45;;;;;;;0.00;0.00;;;;;;;;;;4943852;29;20103;-51
2022/03/13 03:43:10;;;;;;;0.00;0.00;;;;;;;;;;4940391;29;20107;-52
2022/03/13 03:45:35;;;;;;;0.10;0.10;;;;;;;;;;4936560;29;20024;-50
2022/03/13 03:48:00;;;;;;;0.00;0.00;;;;;;;;;;4939743;29;20030;-50
2022/03/13 03:50:26;;;;;;;0.10;0.10;;;;;;;;;;4939560;29;20031;-51
2022/03/13 03:52:55;;;;;;;0.00;0.00;;;;;;;;;;4922169;29;20019;-52
2022/03/13 03:55:21;;;;;;;0.00;0.00;;;;;;;;;;4935826;29;20535;-55
2022/03/13 03:57:46;;;;;;;0.00;0.00;;;;;;;;;;4942740;29;20078;-50
2022/03/13 04:00:12;;;;;;;0.00;0.00;;;;;;;;;;4937374;29;20066;-50
2022/03/13 04:02:38;;;;;;;0.00;0.00;;;;;;;;;;4939604;29;20177;-51
2022/03/13 04:05:04;;;;;;;0.00;0.00;;;;;;;;;;4941679;29;20024;-51
2022/03/13 04:07:30;;;;;;;0.10;0.10;;;;;;;;;;4947317;29;20046;-54
2022/03/13 04:09:55;;;;;;;0.00;0.00;;;;;;;;;;4941605;29;20121;-47
2022/03/13 04:12:20;;;;;;;7.40;6.75;;;;;;;;;;4938799;29;20465;-54
2022/03/13 04:14:45;;;;;;;4.38;1.00;;;;;;;;;;4943511;29;20043;-50
2022/03/13 04:17:11;;;;;;;0.00;0.00;;;;;;;;;;4937159;29;20019;-53
2022/03/13 04:19:36;;;;;;;0.00;0.00;;;;;;;;;;4943376;29;20393;-52
2022/03/13 04:22:02;;;;;;;0.20;0.20;;;;;;;;;;4938314;29;20024;-53
2022/03/13 04:24:29;;;;;;;0.00;0.00;;;;;;;;;;4938063;29;20028;-51
2022/03/13 04:26:55;;;;;;;0.00;0.00;;;;;;;;;;4938744;29;20103;-51
2022/03/13 04:29:23;;;;;;;0.00;0.00;;;;;;;;;;4940742;29;20462;-49
2022/03/13 04:31:50;;;;;;;0.00;0.00;;;;;;;;;;4945886;29;20035;-52
2022/03/13 04:34:16;;;;;;;0.00;0.00;;;;;;;;;;4941544;29;20047;-53
2022/03/13 04:36:42;;;;;;;0.00;0.00;;;;;;;;;;4939657;29;20493;-53
2022/03/13 04:39:08;;;;;;;0.00;0.00;;;;;;;;;;4942272;29;20082;-52
2022/03/13 04:41:33;;;;;;;0.00;0.00;;;;;;;;;;4940686;28;20078;-52
2022/03/13 04:43:59;;;;;;;0.00;0.00;;;;;;;;;;4939981;29;20078;-53
2022/03/13 04:46:25;;;;;;;0.00;0.00;;;;;;;;;;4945664;29;20098;-50
2022/03/13 04:48:52;;;;;;;0.00;0.00;;;;;;;;;;4935436;29;20023;-51
2022/03/13 04:51:18;;;;;;;0.00;0.00;;;;;;;;;;4942065;29;20058;-52
2022/03/13 04:53:43;;;;;;;0.00;0.00;;;;;;;;;;4938962;29;20055;-48
2022/03/13 04:56:09;;;;;;;0.00;0.00;;;;;;;;;;4939034;29;20027;-50
2022/03/13 04:58:35;;;;;;;0.00;0.00;;;;;;;;;;4934567;29;20405;-53
2022/03/13 05:01:00;;;;;;;0.13;0.13;;;;;;;;;;4938498;29;20099;-55
2022/03/13 05:03:27;;;;;;;0.00;0.00;;;;;;;;;;4942225;29;20369;-54
2022/03/13 05:05:53;;;;;;;0.00;0.00;;;;;;;;;;4939357;29;20268;-50
2022/03/13 05:08:18;;;;;;;0.00;0.00;;;;;;;;;;4939705;29;20051;-52
2022/03/13 05:10:44;;;;;;;0.00;0.00;;;;;;;;;;4941457;29;20064;-48
2022/03/13 05:13:14;;;;;;;0.00;0.00;;;;;;;;;;4940673;29;20067;-51
2022/03/13 05:15:40;;;;;;;0.00;0.00;;;;;;;;;;4944127;29;20016;-51
2022/03/13 05:18:06;;;;;;;0.45;0.45;;;;;;;;;;4940115;29;20071;-52
2022/03/13 05:20:33;;;;;;;0.00;0.00;;;;;;;;;;4921628;29;20058;-53
2022/03/13 05:22:58;;;;;;;0.00;0.00;;;;;;;;;;4936322;29;20119;-50
2022/03/13 05:25:23;;;;;;;0.00;0.00;;;;;;;;;;4935781;29;20552;-51
2022/03/13 05:27:49;;;;;;;0.03;0.03;;;;;;;;;;4938946;29;20389;-53
2022/03/13 05:30:14;;;;;;;0.73;0.73;;;;;;;;;;4932076;29;20099;-51
2022/03/13 05:32:40;;;;;;;0.00;0.00;;;;;;;;;;4935786;29;20403;-54
2022/03/13 05:35:05;;;;;;;0.03;0.03;;;;;;;;;;4940669;29;20055;-52
2022/03/13 05:37:30;;;;;;;0.80;0.80;;;;;;;;;;4941308;29;20024;-49
2022/03/13 05:39:56;;;;;;;0.00;0.00;;;;;;;;;;4942230;29;20032;-52
2022/03/13 05:42:24;;;;;;;0.00;0.00;;;;;;;;;;4934835;29;20027;-50
2022/03/13 05:44:50;;;;;;;1.55;1.55;;;;;;;;;;4936190;29;20047;-48
2022/03/13 05:47:16;;;;;;;0.00;0.00;;;;;;;;;;4943514;29;20031;-49
2022/03/13 05:49:44;;;;;;;0.00;0.00;;;;;;;;;;4942215;29;20094;-53
2022/03/13 05:52:09;;;;;;;0.00;0.00;;;;;;;;;;4940994;29;20035;-53
2022/03/13 05:54:34;;;;;;;0.00;0.00;;;;;;;;;;4938096;29;20049;-53
2022/03/13 05:57:01;;;;;;;0.00;0.00;;;;;;;;;;4938415;29;20031;-51
2022/03/13 05:59:27;;;;;;;0.00;0.00;;;;;;;;;;4942838;29;20020;-52
2022/03/13 06:01:52;;;;;;;0.00;0.00;;;;;;;;;;4945285;29;20085;-53
2022/03/13 06:04:17;;;;;;;0.00;0.00;;;;;;;;;;4946081;29;20477;-50
2022/03/13 06:06:43;;;;;;;0.00;0.00;;;;;;;;;;4941742;29;20024;-51
2022/03/13 06:09:08;;;;;;;0.00;0.00;;;;;;;;;;4942733;29;20389;-50
2022/03/13 06:11:33;;;;;;;0.00;0.00;;;;;;;;;;4941580;29;20074;-50
2022/03/13 06:13:58;;;;;;;0.00;0.00;;;;;;;;;;4945994;29;20102;-53
2022/03/13 06:16:24;;;;;;;0.00;0.00;;;;;;;;;;4947669;29;20101;-52
2022/03/13 06:18:49;;;;;;;0.55;0.55;;;;;;;;;;4941891;29;20078;-50
2022/03/13 06:21:14;;;;;;;0.00;0.00;;;;;;;;;;4944006;29;20024;-50
2022/03/13 06:23:40;;;;;;;0.00;0.00;;;;;;;;;;4938852;29;20046;-54
2022/03/13 06:26:05;;;;;;;0.00;0.00;;;;;;;;;;4942703;29;20118;-51
2022/03/13 06:28:32;;;;;;;0.00;0.00;;;;;;;;;;4941891;29;20102;-53
2022/03/13 06:30:57;;;;;;;0.00;0.00;;;;;;;;;;4945985;29;20035;-53
2022/03/13 06:33:23;;;;;;;0.60;0.60;;;;;;;;;;4941021;29;20035;-54
2022/03/13 06:35:48;;;;;;;0.00;0.00;;;;;;;;;;4938417;29;20030;-53
2022/03/13 06:38:13;;;;;;;0.00;0.00;;;;;;;;;;4938963;29;20026;-53
2022/03/13 06:40:39;;;;;;;0.00;0.00;;;;;;;;;;4943818;29;20027;-55
2022/03/13 06:43:05;;;;;;;0.00;0.00;;;;;;;;;;4939985;29;20027;-53
2022/03/13 06:45:30;;;;;;;0.00;0.00;;;;;;;;;;4922868;29;20034;-52
2022/03/13 06:47:56;;;;;;;0.00;0.00;;;;;;;;;;4941983;29;20417;-53
2022/03/13 06:50:23;;;;;;;0.00;0.00;;;;;;;;;;4941441;29;20074;-51
2022/03/13 06:52:49;;;;;;;0.00;0.00;;;;;;;;;;4934320;29;20329;-51
2022/03/13 06:55:14;;;;;;;2.95;2.75;;;;;;;;;;4949444;29;20034;-51
2022/03/13 06:57:40;;;;;;;0.20;0.20;;;;;;;;;;4938830;29;20024;-54
2022/03/13 07:00:06;;;;;;;0.00;0.00;;;;;;;;;;4941982;29;20019;-52
2022/03/13 07:02:31;;;;;;;0.03;0.03;;;;;;;;;;4937574;29;20401;-52
2022/03/13 07:04:56;;;;;;;0.00;0.00;;;;;;;;;;4934981;28;20035;-51
2022/03/13 07:07:22;;;;;;;4.57;1.00;;;;;;;;;;4943415;29;20666;-53
2022/03/13 07:09:47;;;;;;;0.00;0.00;;;;;;;;;;4938316;29;20081;-54
2022/03/13 07:12:13;;;;;;;0.17;0.17;;;;;;;;;;4943310;29;20049;-52
2022/03/13 07:14:42;;;;;;;1.27;1.27;;;;;;;;;;4942208;29;20035;-54
2022/03/13 07:17:07;;;;;;;0.00;0.00;;;;;;;;;;4940630;29;20074;-52
2022/03/13 07:19:32;;;;;;;0.10;0.10;;;;;;;;;;4942576;29;20118;-52
2022/03/13 07:21:58;;;;;;;0.00;0.00;;;;;;;;;;4937739;29;20023;-54
2022/03/13 07:24:23;;;;;;;0.57;0.57;;;;;;;;;;4944440;29;20051;-57
2022/03/13 07:26:48;;;;;;;1.85;0.65;;;;;;;;;;4934877;29;20031;-53
2022/03/13 07:29:13;;;;;;;0.00;0.00;;;;;;;;;;4938969;29;20028;-54
2022/03/13 07:31:38;;;;;;;3.92;3.83;;;;;;;;;;4937533;29;20488;-53
2022/03/13 07:34:04;;;;;;;0.00;0.00;;;;;;;;;;4938236;29;20035;-53
2022/03/13 07:36:30;;;;;;;0.20;0.20;;;;;;;;;;4935806;29;20026;-51
2022/03/13 07:38:55;;;;;;;0.00;0.00;;;;;;;;;;4937658;29;20015;-52
2022/03/13 07:41:21;;;;;;;0.10;0.10;;;;;;;;;;4936026;29;20370;-54
2022/03/13 07:43:46;;;;;;;4.97;0.75;;;;;;;;;;4935055;29;20461;-54
2022/03/13 07:46:11;;;;;;;0.20;0.20;;;;;;;;;;4939606;29;20019;-56
2022/03/13 07:48:37;;;;;;;0.38;0.38;;;;;;;;;;4937387;29;20089;-53
2022/03/13 07:51:05;;;;;;;1.73;1.17;;;;;;;;;;4940632;29;20082;-57
2022/03/13 07:53:31;;;;;;;0.10;0.10;;;;;;;;;;4938147;29;20038;-55
2022/03/13 07:55:56;;;;;;;0.38;0.38;;;;;;;;;;4937363;29;20031;-55
2022/03/13 07:58:22;;;;;;;20.23;12.85;;;;;;;;;;4934224;29;20457;-50
2022/03/13 08:00:48;;;;;;;25.30;18.15;;;;;;;;;;4941468;29;20082;-55
2022/03/13 08:03:16;;;;;;;2.13;1.15;;;;;;;;;;4941015;29;20033;-53
2022/03/13 08:05:43;;;;;;;0.00;0.00;;;;;;;;;;4947208;29;20028;-55
2022/03/13 08:08:08;;;;;;;0.22;0.22;;;;;;;;;;4943682;29;20081;-54
2022/03/13 08:10:34;;;;;;;0.30;0.20;;;;;;;;;;4936580;29;20066;-55
2022/03/13 08:12:59;;;;;;;0.70;0.70;;;;;;;;;;4944127;29;20054;-55
2022/03/13 08:15:25;;;;;;;0.30;0.30;;;;;;;;;;4937408;29;20032;-52
2022/03/13 08:17:50;;;;;;;0.35;0.35;;;;;;;;;;4937124;29;20406;-54
2022/03/13 08:20:16;;;;;;;0.38;0.38;;;;;;;;;;4936831;29;20115;-51
2022/03/13 08:22:41;;;;;;;1.35;0.73;;;;;;;;;;4940489;29;20036;-53
2022/03/13 08:25:07;;;;;;;1.80;1.52;;;;;;;;;;4944342;29;20028;-53
2022/03/13 08:27:34;;;;;;;0.10;0.10;;;;;;;;;;4936528;29;20027;-52
2022/03/13 08:29:59;;;;;;;0.88;0.88;;;;;;;;;;4934024;29;20158;-51
2022/03/13 08:32:25;;;;;;;0.25;0.25;;;;;;;;;;4939819;29;20106;-55
2022/03/13 08:34:52;;;;;;;1.02;1.02;;;;;;;;;;4944300;29;20628;-54
2022/03/13 08:37:17;;;;;;;0.10;0.10;;;;;;;;;;4934365;29;20671;-54
2022/03/13 08:39:42;;;;;;;10.30;2.10;;;;;;;;;;4940456;29;20035;-55
2022/03/13 08:42:08;;;;;;;2.20;1.77;;;;;;;;;;4939112;29;20560;-55
2022/03/13 08:44:33;;;;;;;6.15;2.35;;;;;;;;;;4939712;29;20039;-53
2022/03/13 08:46:59;;;;;;;0.45;0.45;;;;;;;;;;4938390;29;20027;-53
2022/03/13 08:49:24;;;;;;;3.80;2.50;;;;;;;;;;4920981;29;20050;-54
2022/03/13 08:51:50;;;;;;;0.10;0.10;;;;;;;;;;4935150;29;20038;-49
2022/03/13 08:54:16;;;;;;;0.00;0.00;;;;;;;;;;4942106;29;20036;-50
2022/03/13 08:56:42;;;;;;;0.75;0.75;;;;;;;;;;4941874;29;20025;-51
2022/03/13 08:59:07;;;;;;;1.50;1.40;;;;;;;;;;4936591;29;20059;-53
2022/03/13 09:01:32;;;;;;;4.00;3.53;;;;;;;;;;4916942;29;20118;-55
2022/03/13 09:03:58;;;;;;;1.35;1.35;;;;;;;;;;4942245;29;20459;-54
2022/03/13 09:06:23;;;;;;;0.00;0.00;;;;;;;;;;4942213;29;20525;-55
2022/03/13 09:08:48;;;;;;;0.73;0.73;;;;;;;;;;4942905;29;20031;-55
2022/03/13 09:11:14;;;;;;;0.00;0.00;;;;;;;;;;4938449;29;20031;-52
2022/03/13 09:13:39;;;;;;;0.47;0.47;;;;;;;;;;4936911;29;20110;-54
2022/03/13 09:16:04;;;;;;;0.85;0.85;;;;;;;;;;4944642;29;20441;-52
2022/03/13 09:18:30;;;;;;;8.38;2.25;;;;;;;;;;4921355;29;20484;-51
2022/03/13 09:20:56;;;;;;;0.00;0.00;;;;;;;;;;4940692;29;20066;-54
2022/03/13 09:23:21;;;;;;;0.65;0.65;;;;;;;;;;4941844;29;20507;-54
2022/03/13 09:25:47;;;;;;;1.55;0.63;;;;;;;;;;4931641;29;20037;-54
2022/03/13 09:28:12;;;;;;;0.93;0.90;;;;;;;;;;4939777;29;20028;-52
2022/03/13 09:30:38;;;;;;;0.90;0.90;;;;;;;;;;4946580;29;20078;-53
2022/03/13 09:33:04;;;;;;;1.95;0.30;;;;;;;;;;4946103;29;20027;-54
2022/03/13 09:35:30;;;;;;;0.00;0.00;;;;;;;;;;4940073;29;20039;-55
2022/03/13 09:37:55;;;;;;;0.00;0.00;;;;;;;;;;4941275;29;20026;-50
2022/03/13 09:40:21;;;;;;;1.63;1.48;;;;;;;;;;4943946;29;20046;-53
2022/03/13 09:42:47;;;;;;;1.58;1.48;;;;;;;;;;4940346;29;20024;-53
2022/03/13 09:45:12;;;;;;;0.17;0.17;;;;;;;;;;4942078;29;20038;-53
2022/03/13 09:47:38;;;;;;;0.00;0.00;;;;;;;;;;4935515;29;20062;-53
2022/03/13 09:50:04;;;;;;;0.20;0.17;;;;;;;;;;4945990;29;20642;-48
2022/03/13 09:52:33;;;;;;;0.10;0.10;;;;;;;;;;4941332;29;20508;-54
2022/03/13 09:54:58;;;;;;;1.40;0.73;;;;;;;;;;4939723;29;20032;-53
2022/03/13 09:57:23;;;;;;;0.10;0.10;;;;;;;;;;4930620;29;20152;-52
2022/03/13 09:59:50;;;;;;;0.10;0.10;;;;;;;;;;4942468;29;20027;-50
2022/03/13 10:02:15;;;;;;;0.00;0.00;;;;;;;;;;4943248;29;20024;-49
2022/03/13 10:04:40;;;;;;;0.00;0.00;;;;;;;;;;4942509;29;20584;-53
2022/03/13 10:07:10;;;;;;;1.02;1.02;;;;;;;;;;4944433;29;20532;-53
2022/03/13 10:09:35;;;;;;;;;;;;;;;;;;4947560;29;20034;-51
2022/03/13 10:12:03;;;;;;;0.63;0.63;;;;;;;;;;4946353;29;19910;-51
2022/03/13 10:14:28;;;;;;;1.23;1.10;;;;;;;;;;4939345;29;20291;-49
2022/03/13 10:16:53;;;;;;;1.95;1.90;;;;;;;;;;4946512;29;20015;-54
2022/03/13 10:19:19;;;;;;;0.08;0.08;;;;;;;;;;4942101;29;20020;-54
2022/03/13 10:22:00;;;;;;;3.33;2.47;;;;;;;;;;4945632;29;20062;-52
2022/03/13 10:24:26;;;;;;;0.77;0.77;;;;;;;;;;4951062;29;20178;-49
2022/03/13 10:27:07;;;;;;;0.00;0.00;;;;;;;;;;4943569;29;20118;-53
2022/03/13 10:29:32;;;;;;;1.70;1.60;;;;;;;;;;4940105;29;20038;-50
2022/03/13 10:31:58;;;;;;;1.33;1.33;;;;;;;;;;4947088;29;20020;-53
2022/03/13 10:34:24;;;;;;;5.80;3.47;;;;;;;;;;4946322;29;20091;-50
2022/03/13 10:36:50;;;;;;;0.20;0.20;;;;;;;;;;4943765;29;20473;-53
2022/03/13 10:39:20;;;;;;;0.00;0.00;;;;;;;;;;4942474;28;20488;-52
2022/03/13 10:41:51;;;;;;;2.28;1.17;;;;;;;;;;4941274;29;20386;-56
2022/03/13 10:44:17;;;;;;;0.20;0.20;;;;;;;;;;4945569;29;20107;-49
2022/03/13 10:46:44;;;;;;;0.60;0.60;;;;;;;;;;4941441;29;20094;-52
2022/03/13 10:49:09;;;;;;;1.27;1.17;;;;;;;;;;4942417;29;20095;-48
2022/03/13 10:51:45;;;;;;;3.22;3.08;;;;;;;;;;4945741;29;20027;-55
2022/03/13 10:54:25;;;;;;;4.93;4.78;;;;;;;;;;4948367;29;20033;-57
2022/03/13 10:57:03;;;;;;;3.05;1.33;;;;;;;;;;4945144;29;20150;-53
2022/03/13 10:59:29;;;;;;;0.65;0.65;;;;;;;;;;4948678;29;20098;-57
2022/03/13 11:02:13;;;;;;;5.53;5.15;;;;;;;;;;4952466;29;20504;-57
2022/03/13 11:05:05;;;;;;;0.43;0.43;;;;;;;;;;4948287;29;20350;-59
2022/03/13 11:07:31;;;;;;;1.90;1.80;;;;;;;;;;4949616;28;20035;-58
2022/03/13 11:09:57;;;;;;;4.97;1.38;;;;;;;;;;4953675;29;20406;-59
2022/03/13 11:12:23;;;;;;;0.00;0.00;;;;;;;;;;4938013;29;20027;-59
2022/03/13 11:14:53;;;;;;;0.00;0.00;;;;;;;;;;4948368;29;20034;-59
2022/03/13 11:17:19;;;;;;;3.83;1.20;;;;;;;;;;4937497;29;20015;-58
2022/03/13 11:19:46;;;;;;;2.80;1.70;;;;;;;;;;4948951;29;20027;-58
2022/03/13 11:22:20;;;;;;;1.23;1.17;;;;;;;;;;4949445;29;20082;-59
2022/03/13 11:24:46;;;;;;;0.95;0.57;;;;;;;;;;4950915;29;20047;-58
2022/03/13 11:27:12;;;;;;;1.08;1.08;;;;;;;;;;4926691;29;20478;-60
2022/03/13 11:29:45;;;;;;;0.52;0.52;;;;;;;;;;4941233;29;20023;-58
2022/03/13 11:32:29;;;;;;;0.75;0.65;;;;;;;;;;4943140;29;20481;-57
2022/03/13 11:37:38;;;;;;;0.38;0.38;;;;;;;;;;4943311;29;20034;-55
2022/03/13 11:40:05;;;;;;;3.28;2.03;;;;;;;;;;4951870;29;20027;-57
2022/03/13 11:42:47;;;;;;;0.70;0.70;;;;;;;;;;4937741;29;20020;-57
2022/03/13 11:45:27;;;;;;;0.85;0.85;;;;;;;;;;4924889;29;20031;-56
2022/03/13 11:47:52;;;;;;;;;;;;;;;;;;4944152;29;20094;-53
2022/03/13 11:50:17;;;;;;;0.65;0.60;;;;;;;;;;4946290;29;20049;-55
2022/03/13 11:52:42;;;;;;;0.00;0.00;;;;;;;;;;4942912;29;20282;-51
2022/03/13 11:55:09;;;;;;;1.55;1.50;;;;;;;;;;4937724;29;20430;-53
2022/03/13 11:57:45;;;;;;;0.10;0.10;;;;;;;;;;4945239;29;20385;-54
2022/03/13 12:00:10;;;;;;;1.10;0.77;;;;;;;;;;4945650;29;20030;-53
2022/03/13 12:02:42;;;;;;;3.67;3.38;;;;;;;;;;4942563;29;20023;-53
2022/03/13 12:05:28;;;;;;;0.00;0.00;;;;;;;;;;4943794;29;20411;-52
2022/03/13 12:07:59;;;;;;;3.75;1.45;;;;;;;;;;4943005;29;20031;-50
2022/03/13 12:10:29;;;;;;;4.25;3.85;;;;;;;;;;4947307;29;20028;-51
2022/03/13 12:13:07;;;;;;;0.17;0.17;;;;;;;;;;4938183;29;20020;-52
2022/03/13 12:15:33;;;;;;;3.20;0.88;;;;;;;;;;4943233;29;20038;-53
2022/03/13 12:17:58;;;;;;;0.73;0.73;;;;;;;;;;4943831;29;20500;-52
2022/03/13 12:20:25;;;;;;;0.05;0.05;;;;;;;;;;4941939;29;20055;-53
2022/03/13 12:22:53;;;;;;;0.00;0.00;;;;;;;;;;4941919;29;20090;-56
2022/03/13 12:25:21;;;;;;;0.77;0.77;;;;;;;;;;4940047;29;20023;-54
2022/03/13 12:27:46;;;;;;;2.33;0.52;;;;;;;;;;4953070;29;20059;-56
2022/03/13 12:30:12;;;;;;;0.25;0.25;;;;;;;;;;4941624;29;20051;-54
2022/03/13 12:32:37;;;;;;;2.45;1.65;;;;;;;;;;4942854;29;20564;-55
2022/03/13 12:35:04;;;;;;;2.58;1.95;;;;;;;;;;4944396;29;20023;-53
2022/03/13 12:37:29;;;;;;;4.32;3.20;;;;;;;;;;4944233;29;20019;-54
2022/03/13 12:39:57;;;;;;;3.70;2.85;;;;;;;;;;4939697;29;20128;-53
2022/03/13 12:42:24;;;;;;;3.25;1.92;;;;;;;;;;4940729;29;20024;-53
2022/03/13 12:44:59;;;;;;;4.65;4.22;;;;;;;;;;4944106;29;20019;-53
2022/03/13 12:47:25;;;;;;;0.40;0.40;;;;;;;;;;4943946;29;20099;-56
2022/03/13 12:49:56;;;;;;;1.70;1.60;;;;;;;;;;4927299;29;20110;-53
2022/03/13 12:52:21;;;;;;;0.45;0.45;;;;;;;;;;4937854;29;20031;-56
2022/03/13 12:54:46;;;;;;;2.40;1.30;;;;;;;;;;4937462;29;20027;-56
2022/03/13 12:57:12;;;;;;;0.60;0.60;;;;;;;;;;4941409;29;20098;-56
2022/03/13 12:59:40;;;;;;;1.30;1.20;;;;;;;;;;4939657;29;20019;-55
2022/03/13 13:02:10;;;;;;;4.57;1.02;;;;;;;;;;4924924;29;20021;-53
2022/03/13 13:04:39;;;;;;;0.30;0.30;;;;;;;;;;4936493;29;20023;-53
2022/03/13 13:07:05;;;;;;;4.50;3.05;;;;;;;;;;4940133;29;20031;-54
2022/03/13 13:09:31;;;;;;;1.15;1.13;;;;;;;;;;4935145;29;20074;-55
2022/03/13 13:11:57;;;;;;;0.40;0.40;;;;;;;;;;4938758;29;20123;-57
2022/03/13 13:14:24;;;;;;;1.88;1.77;;;;;;;;;;4940549;29;20115;-53
2022/03/13 13:16:49;;;;;;;7.43;1.80;;;;;;;;;;4939367;29;20425;-56
2022/03/13 13:19:14;;;;;;;7.20;2.03;;;;;;;;;;4937665;29;20058;-55
2022/03/13 13:21:40;;;;;;;0.45;0.45;;;;;;;;;;4919376;29;20031;-52
2022/03/13 13:24:32;;;;;;;3.63;2.28;;;;;;;;;;4942560;29;20493;-51
2022/03/13 13:26:58;;;;;;;2.53;1.15;;;;;;;;;;4943351;29;20102;-56
2022/03/13 13:29:38;;;;;;;2.65;2.55;;;;;;;;;;4941068;29;20443;-54
2022/03/13 13:32:03;;;;;;;;;;;;;;;;;;4920052;29;20032;-53
2022/03/13 13:34:28;;;;;;;3.38;3.13;;;;;;;;;;4944155;29;20025;-54
2022/03/13 13:37:06;;;;;;;0.73;0.73;;;;;;;;;;4937457;29;20032;-52
2022/03/13 13:39:32;;;;;;;6.15;4.95;;;;;;;;;;4936879;29;20087;-54
2022/03/13 13:41:57;;;;;;;0.00;0.00;;;;;;;;;;4941190;29;20126;-51
2022/03/13 13:44:29;;;;;;;5.50;3.25;;;;;;;;;;4938203;29;20537;-52
2022/03/13 13:47:04;;;;;;;0.50;0.50;;;;;;;;;;4938624;29;20165;-50
2022/03/13 13:49:29;;;;;;;2.58;2.45;;;;;;;;;;4935799;29;20032;-63
2022/03/13 13:52:08;;;;;;;5.57;1.77;;;;;;;;;;4938255;29;20038;-64
2022/03/13 13:54:35;;;;;;;5.05;2.75;;;;;;;;;;4937739;29;20027;-63
2022/03/13 13:57:02;;;;;;;3.55;2.13;;;;;;;;;;4940325;29;20071;-63
2022/03/13 13:59:32;;;;;;;1.63;1.63;;;;;;;;;;4942209;29;20023;-61
2022/03/13 14:02:03;;;;;;;1.27;0.20;;;;;;;;;;4933421;29;20453;-63
2022/03/13 14:04:33;;;;;;;4.05;1.42;;;;;;;;;;4929322;29;20122;-64
2022/03/13 14:07:01;;;;;;;2.08;1.98;;;;;;;;;;4935794;29;20031;-63
2022/03/13 14:09:27;;;;;;;0.88;0.88;;;;;;;;;;4929009;29;20055;-63
2022/03/13 14:11:52;;;;;;;2.80;1.92;;;;;;;;;;4929917;29;20039;-65
2022/03/13 14:14:18;;;;;;;1.42;1.42;;;;;;;;;;4929766;29;20515;-66
2022/03/13 14:16:43;;;;;;;1.52;1.52;;;;;;;;;;4937566;29;20024;-61
2022/03/13 14:19:09;;;;;;;1.25;1.23;;;;;;;;;;4936735;29;20024;-62
2022/03/13 14:21:35;;;;;;;0.20;0.20;;;;;;;;;;4941786;29;20380;-64
2022/03/13 14:24:00;;;;;;;1.05;0.55;;;;;;;;;;4949565;29;20047;-64
2022/03/13 14:26:25;;;;;;;6.70;4.05;;;;;;;;;;4956504;29;20031;-63
2022/03/13 14:28:50;;;;;;;1.83;1.73;;;;;;;;;;4939411;29;20062;-63
2022/03/13 14:31:17;;;;;;;27.85;4.22;;;;;;;;;;4935981;29;20115;-62
2022/03/13 14:33:42;;;;;;;5.85;5.20;;;;;;;;;;4944820;29;20047;-63
2022/03/13 14:36:08;;;;;;;4.13;3.60;;;;;;;;;;4945380;29;20461;-64
2022/03/13 14:38:34;;;;;;;0.30;0.30;;;;;;;;;;4931934;29;20061;-63
2022/03/13 14:40:59;;;;;;;2.17;0.80;;;;;;;;;;4945812;29;20083;-62
2022/03/13 14:43:24;;;;;;;0.00;0.00;;;;;;;;;;4946242;29;20023;-63